Aviation Digital Data Service (ADDS)

Output produced by METARs form (1804 UTC 24 June 2019)
found at http://www.aviationweather.gov/metar/data/
 
Forecast for: RPLB (OLONGAPO/SUBIC , PH)
Text: TAF RPLB 241700Z 2418/2518 21007KT 9999 FEW020 BKN300 TX33/2506Z TN25/2421Z
Forecast period: 1800 UTC 24 June 2019 to 1800 UTC 25 June 2019
Forecast type: FROM: standard forecast or significant change
Winds: from the SSW (210 degrees) at 8 MPH (7 knots; 3.6 m/s)
Visibility: 6 or more miles 10+ km)
Ceiling: 30000 feet AGL
Clouds: few clouds at 2000 feet AGL
broken clouds at 30000 feet AGL
Weather: no significant weather forecast for this period
Text: TEMPO 2418/2424 28006KT 8000 -TSRA FEW018CB SCT020 BKN080
Forecast period: 1800 UTC 24 June 2019 to 0000 UTC 25 June 2019
Forecast type: TEMPORARY: The following changes expected for less than half the time period
Winds: from the W (280 degrees) at 7 MPH (6 knots; 3.1 m/s)
Visibility: 5 miles (8 km)
Ceiling: 8000 feet AGL
Clouds: few clouds at 1800 feet AGL
scattered clouds at 2000 feet AGL
broken clouds at 8000 feet AGL
Weather: -TSRA  (light rain associated with thunderstorm(s))